Terminal Aerodrome Forecast
Issued by NWS Cleveland, OH

Home | Current Version | Previous Version | Text Only | Print | Product List | Glossary On
Versions: 1 2 3 4 5 6 7 8 9 10 11 12 13 14 15 16 17 18 19 20 21 22 23 24 25 26
000
FTUS41 KCLE 291303 AAA
TAFCAK
TAF AMD
KCAK 291303Z 2913/3012 05007KT P6SM SCT025
      TEMPO 2913/2916 BKN025
     FM291600 02010KT P6SM SCT025
     FM300600 08011KT P6SM OVC120=

USA.gov is the U.S. government's official web portal to all federal, state and local government web resources and services.